createdAt,value
2022-07-28T00:00:18.211Z,101655.81
2022-07-28T00:02:46.564Z,101661.16
2022-07-28T00:05:14.817Z,101657.84
2022-07-28T00:07:43.355Z,101666.84
2022-07-28T00:10:11.685Z,101661.03
2022-07-28T00:12:41.358Z,101658.94
2022-07-28T00:15:10.256Z,101659.75
2022-07-28T00:17:38.551Z,101661.97
2022-07-28T00:20:08.408Z,101655.81
2022-07-28T00:22:36.640Z,101664.63
2022-07-28T00:25:05.347Z,101660.31
2022-07-28T00:27:33.481Z,101662.97
2022-07-28T00:30:03.094Z,101664.00
2022-07-28T00:32:31.424Z,101665.00
2022-07-28T00:35:00.024Z,101658.88
2022-07-28T00:37:28.291Z,101659.03
2022-07-28T00:39:56.495Z,101658.41
2022-07-28T00:42:24.752Z,101655.94
2022-07-28T00:44:53.030Z,101645.09
2022-07-28T00:47:22.585Z,101644.09
2022-07-28T00:49:51.072Z,101642.44
2022-07-28T00:52:20.107Z,101645.91
2022-07-28T00:54:48.264Z,101644.09
2022-07-28T00:57:16.559Z,101639.78
2022-07-28T00:59:44.736Z,101640.59
2022-07-28T01:02:13.238Z,101636.50
2022-07-28T01:04:43.239Z,101629.69
2022-07-28T01:07:25.148Z,101631.34
2022-07-28T01:10:00.432Z,101632.34
2022-07-28T01:12:38.968Z,101626.84
2022-07-28T01:15:19.167Z,101623.53
2022-07-28T01:17:54.189Z,101619.41
2022-07-28T01:20:30.219Z,101622.72
2022-07-28T01:23:24.637Z,101624.56
2022-07-28T01:26:18.549Z,101615.94
2022-07-28T01:29:03.516Z,101617.75
2022-07-28T01:31:40.801Z,101609.97
2022-07-28T01:34:13.176Z,101602.81
2022-07-28T01:36:47.029Z,101604.66
2022-07-28T01:39:16.319Z,101602.00
2022-07-28T01:41:46.519Z,101611.63
2022-07-28T01:44:20.251Z,101598.31
2022-07-28T01:46:51.555Z,101602.81
2022-07-28T01:49:22.547Z,101589.72
2022-07-28T01:51:52.696Z,101595.03
2022-07-28T01:54:24.763Z,101595.19
2022-07-28T01:56:54.281Z,101589.88
2022-07-28T01:59:24.907Z,101590.69
2022-07-28T02:01:55.636Z,101588.69
2022-07-28T02:04:25.136Z,101578.88
2022-07-28T02:06:55.557Z,101584.19
2022-07-28T02:09:24.740Z,101574.59
2022-07-28T02:11:55.460Z,101571.91
2022-07-28T02:14:25.317Z,101580.72
2022-07-28T02:17:00.083Z,101569.88
2022-07-28T02:19:30.880Z,101567.22
2022-07-28T02:21:59.171Z,101560.06
2022-07-28T02:24:28.916Z,101561.72
2022-07-28T02:27:00.966Z,101557.25
2022-07-28T02:29:50.376Z,101561.72
2022-07-28T02:32:27.198Z,101551.72
2022-07-28T02:35:01.947Z,101553.09
2022-07-28T02:37:36.126Z,101557.41
2022-07-28T02:40:05.893Z,101552.91
2022-07-28T02:42:37.812Z,101555.97
2022-07-28T02:45:09.752Z,101556.78
2022-07-28T02:47:45.711Z,101557.59
2022-07-28T02:50:16.333Z,101555.16
2022-07-28T02:52:47.219Z,101548.16
2022-07-28T02:55:17.504Z,101548.97
2022-07-28T02:57:46.965Z,101548.81
2022-07-28T03:00:16.591Z,101547.16
2022-07-28T03:02:47.156Z,101542.84
2022-07-28T03:05:16.685Z,101547.97
2022-07-28T03:07:50.702Z,101538.53
2022-07-28T03:10:34.316Z,101539.34
2022-07-28T03:13:04.373Z,101531.75
2022-07-28T03:15:33.248Z,101535.25
2022-07-28T03:18:03.403Z,101530.94
2022-07-28T03:20:31.863Z,101528.28
2022-07-28T03:23:00.401Z,101529.28
2022-07-28T03:25:34.007Z,101533.59
2022-07-28T03:28:04.327Z,101528.28
2022-07-28T03:30:37.318Z,101535.41
2022-07-28T03:33:07.843Z,101529.94
2022-07-28T03:35:40.430Z,101537.09
2022-07-28T03:38:13.100Z,101535.59
2022-07-28T03:40:46.372Z,101527.00
2022-07-28T03:43:16.274Z,101535.97
2022-07-28T03:45:46.966Z,101533.50
2022-07-28T03:48:16.838Z,101539.63
2022-07-28T03:50:45.270Z,101536.16
2022-07-28T03:53:21.030Z,101534.97
2022-07-28T03:55:51.275Z,101529.81
2022-07-28T03:58:20.276Z,101532.47
2022-07-28T04:00:49.576Z,101533.69
2022-07-28T04:03:34.842Z,101532.47
2022-07-28T04:06:08.304Z,101529.81
2022-07-28T04:08:36.877Z,101527.81
2022-07-28T04:11:05.067Z,101519.03
2022-07-28T04:13:33.549Z,101520.88
2022-07-28T04:16:02.073Z,101526.34
2022-07-28T04:18:31.934Z,101524.50
2022-07-28T04:21:00.275Z,101530.03
2022-07-28T04:23:28.585Z,101523.88
2022-07-28T04:25:56.748Z,101523.22
2022-07-28T04:28:25.495Z,101518.09
2022-07-28T04:30:53.812Z,101517.47
2022-07-28T04:33:22.119Z,101523.78
2022-07-28T04:35:53.162Z,101517.63
2022-07-28T04:38:21.477Z,101520.50
2022-07-28T04:40:50.064Z,101511.50
2022-07-28T04:43:18.369Z,101516.81
2022-07-28T04:45:53.600Z,101514.16
2022-07-28T04:48:22.828Z,101511.34
2022-07-28T04:50:53.321Z,101513.16
2022-07-28T04:53:22.694Z,101511.69
2022-07-28T04:55:53.460Z,101502.50
2022-07-28T04:58:23.671Z,101509.50
2022-07-28T05:00:52.999Z,101499.22
2022-07-28T05:03:22.267Z,101495.94
2022-07-28T05:05:54.582Z,101494.94
2022-07-28T05:08:26.568Z,101497.38
2022-07-28T05:10:56.655Z,101501.69
2022-07-28T05:13:28.984Z,101503.38
2022-07-28T05:16:01.529Z,101505.16
2022-07-28T05:18:29.893Z,101509.50
2022-07-28T05:20:58.433Z,101509.50
2022-07-28T05:23:28.142Z,101516.47
2022-07-28T05:25:56.731Z,101510.78
2022-07-28T05:28:24.956Z,101522.03
2022-07-28T05:30:53.314Z,101514.69
2022-07-28T05:33:21.544Z,101514.53
2022-07-28T05:35:54.348Z,101512.34
2022-07-28T05:38:22.925Z,101521.13
2022-07-28T05:40:52.851Z,101517.66
2022-07-28T05:43:21.752Z,101515.16
2022-07-28T05:45:50.298Z,101512.50
2022-07-28T05:48:19.844Z,101513.31
2022-07-28T05:50:48.421Z,101513.31
2022-07-28T05:53:16.967Z,101518.63
2022-07-28T05:56:00.490Z,101515.63
2022-07-28T05:58:32.013Z,101501.69
2022-07-28T06:01:01.510Z,101501.50
2022-07-28T06:03:30.675Z,101509.09
2022-07-28T06:06:14.426Z,101510.09
2022-07-28T06:08:45.397Z,101513.97
2022-07-28T06:11:21.966Z,101511.31
2022-07-28T06:13:53.052Z,101517.19
2022-07-28T06:16:23.052Z,101523.88
2022-07-28T06:18:51.992Z,101527.72
2022-07-28T06:21:20.402Z,101528.38
2022-07-28T06:23:48.994Z,101531.19
2022-07-28T06:26:17.280Z,101525.88
2022-07-28T06:28:45.542Z,101530.38
2022-07-28T06:31:15.218Z,101524.50
2022-07-28T06:33:43.467Z,101525.72
2022-07-28T06:36:11.620Z,101526.75
2022-07-28T06:38:39.862Z,101529.66
2022-07-28T06:41:08.487Z,101535.97
2022-07-28T06:43:38.973Z,101531.09
2022-07-28T06:46:07.861Z,101537.91
2022-07-28T06:48:39.643Z,101530.00
2022-07-28T06:51:08.187Z,101530.66
2022-07-28T06:53:37.301Z,101532.28
2022-07-28T06:56:06.774Z,101531.06
2022-07-28T06:58:35.695Z,101536.59
2022-07-28T07:01:07.941Z,101540.53
2022-07-28T07:03:37.920Z,101535.47
2022-07-28T07:06:06.081Z,101534.91
2022-07-28T07:08:34.377Z,101537.00
2022-07-28T07:11:02.682Z,101539.13
2022-07-28T07:13:30.882Z,101534.25
2022-07-28T07:15:59.137Z,101536.72
2022-07-28T07:18:27.775Z,101533.84
2022-07-28T07:20:58.909Z,101527.44
2022-07-28T07:23:27.179Z,101532.19
2022-07-28T07:25:55.625Z,101533.72
2022-07-28T07:28:23.860Z,101526.75
2022-07-28T07:30:52.052Z,101536.63
2022-07-28T07:33:20.190Z,101535.22
2022-07-28T07:35:48.770Z,101531.56
2022-07-28T07:38:18.469Z,101532.38
2022-07-28T07:40:47.009Z,101537.06
2022-07-28T07:43:15.397Z,101542.59
2022-07-28T07:45:43.573Z,101538.25
2022-07-28T07:48:12.540Z,101536.63
2022-07-28T07:50:40.888Z,101533.84
2022-07-28T07:53:10.047Z,101539.88
2022-07-28T07:55:39.730Z,101533.97
2022-07-28T07:58:08.188Z,101533.19
2022-07-28T08:00:36.269Z,101542.06
2022-07-28T08:03:04.619Z,101544.56
2022-07-28T08:05:39.500Z,101538.28
2022-07-28T08:08:07.833Z,101548.97
2022-07-28T08:10:36.741Z,101539.81
2022-07-28T08:13:07.569Z,101535.16
2022-07-28T08:15:36.646Z,101548.34
2022-07-28T08:18:05.316Z,101539.75
2022-07-28T08:20:33.554Z,101545.94
2022-07-28T08:23:02.021Z,101547.16
2022-07-28T08:25:30.267Z,101551.66
2022-07-28T08:27:58.585Z,101547.56
2022-07-28T08:30:32.323Z,101546.75
2022-07-28T08:33:03.003Z,101553.28
2022-07-28T08:35:34.012Z,101553.00
2022-07-28T08:38:05.070Z,101551.75
2022-07-28T08:40:33.576Z,101554.19
2022-07-28T08:43:09.754Z,101559.66
2022-07-28T08:45:42.406Z,101552.69
2022-07-28T08:48:12.253Z,101548.16
2022-07-28T08:50:40.468Z,101550.00
2022-07-28T08:53:09.445Z,101547.13
2022-07-28T08:55:38.847Z,101547.13
2022-07-28T08:58:07.629Z,101544.31
2022-07-28T09:00:35.892Z,101546.53
2022-07-28T09:03:06.719Z,101541.16
2022-07-28T09:05:35.861Z,101540.34
2022-07-28T09:08:04.509Z,101535.41
2022-07-28T09:10:33.107Z,101532.00
2022-07-28T09:13:01.376Z,101532.25
2022-07-28T09:15:29.869Z,101532.72
2022-07-28T09:17:57.997Z,101528.25
2022-07-28T09:20:28.589Z,101527.09
2022-07-28T09:22:59.412Z,101516.28
2022-07-28T09:25:30.338Z,101515.97
2022-07-28T09:28:06.615Z,101519.09
2022-07-28T09:30:36.251Z,101510.09
2022-07-28T09:33:43.107Z,101507.88
2022-07-28T09:36:16.573Z,101506.47
2022-07-28T09:38:45.853Z,101500.16
2022-07-28T09:41:14.783Z,101492.97
2022-07-28T09:43:49.767Z,101486.81
2022-07-28T09:46:25.512Z,101481.88
2022-07-28T09:48:56.698Z,101484.16
2022-07-28T09:51:28.375Z,101484.75
2022-07-28T09:54:08.660Z,101482.69
2022-07-28T09:56:37.261Z,101485.38
2022-07-28T09:59:05.891Z,101485.38
2022-07-28T10:01:50.997Z,101486.81
2022-07-28T10:04:30.318Z,101490.94
2022-07-28T10:07:05.781Z,101501.19
2022-07-28T10:09:34.266Z,101503.28
2022-07-28T10:12:20.067Z,101503.88
2022-07-28T10:14:49.186Z,101506.13
2022-07-28T10:17:28.032Z,101497.69
2022-07-28T10:19:58.556Z,101499.13
2022-07-28T10:22:33.190Z,101495.19
2022-07-28T10:25:03.982Z,101496.00
2022-07-28T10:27:33.524Z,101492.00
2022-07-28T10:30:03.742Z,101489.69
2022-07-28T10:32:35.867Z,101498.47
2022-07-28T10:35:07.739Z,101496.13
2022-07-28T10:37:40.318Z,101493.78
2022-07-28T10:40:11.131Z,101500.13
2022-07-28T10:42:41.848Z,101506.03
2022-07-28T10:45:12.246Z,101498.16
2022-07-28T10:47:40.917Z,101504.91
2022-07-28T10:50:10.305Z,101501.72
2022-07-28T10:52:48.165Z,101501.69
2022-07-28T10:55:24.755Z,101500.97
2022-07-28T10:58:11.598Z,101507.47
2022-07-28T11:00:55.940Z,101517.56
2022-07-28T11:03:42.655Z,101511.31
2022-07-28T11:06:26.457Z,101521.19
2022-07-28T11:08:57.346Z,101516.91
2022-07-28T11:11:45.179Z,101518.34
2022-07-28T11:14:34.037Z,101506.50
2022-07-28T11:17:16.563Z,101505.34
2022-07-28T11:22:45.290Z,101503.72
2022-07-28T11:25:22.193Z,101508.13
2022-07-28T11:28:05.230Z,101508.41
2022-07-28T11:30:58.141Z,101502.44
2022-07-28T11:33:47.070Z,101507.00
2022-07-28T11:36:15.385Z,101514.22
2022-07-28T11:39:21.866Z,101503.00
2022-07-28T11:41:52.054Z,101491.63
2022-07-28T11:44:26.384Z,101490.19
2022-07-28T11:46:54.695Z,101495.94
2022-07-28T11:49:28.114Z,101488.34
2022-07-28T11:52:21.045Z,101487.25
2022-07-28T11:54:51.747Z,101496.03
2022-07-28T11:57:24.496Z,101495.56
2022-07-28T11:59:55.020Z,101502.84
2022-07-28T12:02:26.576Z,101506.00
2022-07-28T12:05:04.049Z,101500.59
2022-07-28T12:07:35.206Z,101502.59
2022-07-28T12:10:53.531Z,101509.31
2022-07-28T12:13:14.070Z,101502.78
2022-07-28T12:15:42.303Z,101499.88
2022-07-28T12:18:13.167Z,101496.88
2022-07-28T12:20:48.681Z,101494.28
2022-07-28T12:23:17.003Z,101493.25
2022-07-28T12:25:47.200Z,101498.06
2022-07-28T12:28:18.898Z,101495.44
2022-07-28T12:30:47.380Z,101492.78
2022-07-28T12:33:21.681Z,101490.88
2022-07-28T12:35:53.488Z,101485.88
2022-07-28T12:38:23.456Z,101490.31
2022-07-28T12:40:51.961Z,101495.78
2022-07-28T12:43:26.524Z,101490.16
2022-07-28T12:45:55.461Z,101494.34
2022-07-28T12:48:23.823Z,101497.03
2022-07-28T12:50:52.313Z,101498.09
2022-07-28T12:53:22.859Z,101491.94
2022-07-28T12:56:02.488Z,101494.72
2022-07-28T12:58:32.186Z,101498.72
2022-07-28T13:01:01.628Z,101495.72
2022-07-28T13:03:30.724Z,101496.69
2022-07-28T13:06:05.740Z,101491.16
2022-07-28T13:08:44.667Z,101498.81
2022-07-28T13:11:42.413Z,101497.38
2022-07-28T13:14:05.063Z,101494.38
2022-07-28T13:16:34.587Z,101495.84
2022-07-28T13:19:05.749Z,101501.22
2022-07-28T13:21:56.976Z,101504.38
2022-07-28T13:24:28.339Z,101503.75
2022-07-28T13:26:57.106Z,101497.91
2022-07-28T13:29:26.701Z,101502.88
2022-07-28T13:31:55.655Z,101499.09
2022-07-28T13:34:24.066Z,101494.09
2022-07-28T13:36:52.682Z,101499.03
2022-07-28T13:39:21.071Z,101501.03
2022-07-28T13:41:58.613Z,101495.59
2022-07-28T13:44:30.212Z,101499.09
2022-07-28T13:46:59.451Z,101493.69
2022-07-28T13:49:28.554Z,101490.84
2022-07-28T13:51:57.402Z,101491.56
2022-07-28T13:54:25.945Z,101499.50
2022-07-28T13:56:54.558Z,101499.91
2022-07-28T13:59:26.282Z,101494.56
2022-07-28T14:01:57.545Z,101494.94
2022-07-28T14:04:26.095Z,101499.72
2022-07-28T14:06:55.133Z,101505.66
2022-07-28T14:09:23.389Z,101504.44
2022-07-28T14:11:53.238Z,101512.66
2022-07-28T14:14:23.904Z,101513.94
2022-07-28T14:16:53.441Z,101508.84
2022-07-28T14:19:39.082Z,101508.91
2022-07-28T14:22:13.304Z,101506.22
2022-07-28T14:24:42.569Z,101510.75
2022-07-28T14:27:11.048Z,101498.25
2022-07-28T14:29:39.295Z,101510.47
2022-07-28T14:32:08.019Z,101507.16
2022-07-28T14:34:39.747Z,101510.75
2022-07-28T14:37:09.270Z,101513.94
2022-07-28T14:39:38.481Z,101517.88
2022-07-28T14:42:07.065Z,101516.91
2022-07-28T14:44:35.542Z,101514.69
2022-07-28T14:47:04.023Z,101518.44
2022-07-28T14:49:32.277Z,101510.81
2022-07-28T14:52:01.841Z,101519.34
2022-07-28T14:54:30.583Z,101526.19
2022-07-28T14:56:58.688Z,101514.75
2022-07-28T14:59:26.947Z,101527.22
2022-07-28T15:01:55.258Z,101523.72
2022-07-28T15:04:23.620Z,101529.91
2022-07-28T15:06:52.872Z,101519.19
2022-07-28T15:09:22.872Z,101522.16
2022-07-28T15:11:51.086Z,101516.25
2022-07-28T15:14:21.369Z,101527.19
2022-07-28T15:16:50.252Z,101518.34
2022-07-28T15:19:18.617Z,101525.38
2022-07-28T15:21:47.581Z,101515.53
2022-07-28T15:24:17.081Z,101515.75
2022-07-28T15:26:46.930Z,101521.75
2022-07-28T15:29:15.072Z,101521.34
2022-07-28T15:31:45.380Z,101516.00
2022-07-28T15:34:15.551Z,101510.81
2022-07-28T15:36:43.986Z,101510.59
2022-07-28T15:39:15.068Z,101509.75
2022-07-28T15:41:44.088Z,101506.19
2022-07-28T15:44:16.471Z,101502.50
2022-07-28T15:46:46.660Z,101509.66
2022-07-28T15:49:15.409Z,101507.63
2022-07-28T15:51:43.839Z,101509.50
2022-07-28T15:54:12.303Z,101506.41
2022-07-28T15:56:42.094Z,101506.75
2022-07-28T15:59:10.362Z,101510.81
2022-07-28T16:01:45.246Z,101504.88
2022-07-28T16:04:14.367Z,101504.25
2022-07-28T16:07:00.758Z,101504.47
2022-07-28T16:09:45.951Z,101505.94
2022-07-28T16:12:14.996Z,101500.94
2022-07-28T16:14:43.221Z,101506.09
2022-07-28T16:17:13.683Z,101504.66
2022-07-28T16:19:50.457Z,101500.34
2022-07-28T16:22:19.446Z,101502.38
2022-07-28T16:24:48.037Z,101504.88
2022-07-28T16:27:16.523Z,101515.41
2022-07-28T16:29:45.130Z,101513.03
2022-07-28T16:32:14.786Z,101514.50
2022-07-28T16:34:42.984Z,101511.22
2022-07-28T16:37:14.718Z,101513.94
2022-07-28T16:39:45.753Z,101513.38
2022-07-28T16:42:13.977Z,101519.78
2022-07-28T16:44:42.854Z,101509.28
2022-07-28T16:47:11.049Z,101514.22
2022-07-28T16:49:45.562Z,101517.53
2022-07-28T16:52:14.552Z,101511.38
2022-07-28T16:54:43.714Z,101515.53
2022-07-28T16:57:12.426Z,101515.72
2022-07-28T16:59:47.845Z,101517.56
2022-07-28T17:02:16.931Z,101510.41
2022-07-28T17:04:46.677Z,101521.72
2022-07-28T17:07:15.559Z,101521.72
2022-07-28T17:09:44.327Z,101524.63
2022-07-28T17:12:12.658Z,101525.63
2022-07-28T17:14:40.797Z,101516.38
2022-07-28T17:17:09.327Z,101516.38
2022-07-28T17:19:39.848Z,101508.97
2022-07-28T17:22:13.098Z,101513.06
2022-07-28T17:24:41.354Z,101513.69
2022-07-28T17:29:58.272Z,101515.81
2022-07-28T17:32:26.512Z,101519.28
2022-07-28T17:34:55.681Z,101526.28
2022-07-28T17:37:27.703Z,101538.41
2022-07-28T17:39:56.803Z,101528.94
2022-07-28T17:42:25.795Z,101526.69
2022-07-28T17:44:59.539Z,101525.84
2022-07-28T17:47:36.151Z,101521.31
2022-07-28T17:50:07.343Z,101526.06
2022-07-28T17:52:36.981Z,101524.84
2022-07-28T17:55:23.980Z,101533.25
2022-07-28T17:57:52.946Z,101537.38
2022-07-28T18:00:22.287Z,101532.66
2022-07-28T18:02:50.790Z,101534.91
2022-07-28T18:05:19.496Z,101530.38
2022-07-28T18:07:51.064Z,101530.59
2022-07-28T18:10:24.597Z,101530.38
2022-07-28T18:12:53.437Z,101527.69
2022-07-28T18:15:21.631Z,101532.63
2022-07-28T18:17:55.411Z,101541.06
2022-07-28T18:20:25.009Z,101534.28
2022-07-28T18:22:54.643Z,101532.63
2022-07-28T18:25:22.843Z,101533.88
2022-07-28T18:27:51.266Z,101540.03
2022-07-28T18:30:19.930Z,101526.91
2022-07-28T18:32:48.457Z,101529.97
2022-07-28T18:35:17.057Z,101532.63
2022-07-28T18:37:46.153Z,101521.31
2022-07-28T18:40:17.999Z,101528.34
2022-07-28T18:42:47.086Z,101526.66
2022-07-28T18:45:16.286Z,101532.44
2022-07-28T18:47:46.601Z,101532.22
2022-07-28T18:50:30.564Z,101543.75
2022-07-28T18:53:00.779Z,101548.69
2022-07-28T18:55:30.600Z,101546.84
2022-07-28T18:57:58.827Z,101546.00
2022-07-28T19:00:27.209Z,101552.59
2022-07-28T19:02:55.458Z,101552.78
2022-07-28T19:05:23.767Z,101553.84
2022-07-28T19:07:52.065Z,101559.59
2022-07-28T19:10:20.287Z,101563.69
2022-07-28T19:12:51.124Z,101564.91
2022-07-28T19:15:19.359Z,101560.19
2022-07-28T19:17:47.553Z,101558.72
2022-07-28T19:20:35.756Z,101569.38
2022-07-28T19:23:05.478Z,101568.94
2022-07-28T19:25:36.444Z,101573.25
2022-07-28T19:28:07.261Z,101575.72
2022-07-28T19:30:35.615Z,101566.06
2022-07-28T19:33:04.436Z,101566.84
2022-07-28T19:35:33.001Z,101574.84
2022-07-28T19:38:02.816Z,101570.94
2022-07-28T19:40:32.260Z,101562.31
2022-07-28T19:43:01.249Z,101561.06
2022-07-28T19:45:31.153Z,101565.75
2022-07-28T19:48:00.291Z,101562.66
2022-07-28T19:50:29.733Z,101562.88
2022-07-28T19:52:58.411Z,101556.28
2022-07-28T19:55:29.151Z,101555.69
2022-07-28T19:58:00.336Z,101553.00
2022-07-28T20:00:28.637Z,101551.38
2022-07-28T20:02:58.453Z,101541.31
2022-07-28T20:05:27.034Z,101550.13
2022-07-28T20:07:55.460Z,101551.53
2022-07-28T20:10:23.838Z,101554.41
2022-07-28T20:12:52.120Z,101540.69
2022-07-28T20:15:20.308Z,101550.13
2022-07-28T20:17:48.558Z,101547.44
2022-07-28T20:20:18.340Z,101539.84
2022-07-28T20:22:47.614Z,101549.47
2022-07-28T20:25:16.237Z,101553.97
2022-07-28T20:27:44.483Z,101545.97
2022-07-28T20:30:14.154Z,101542.66
2022-07-28T20:32:44.261Z,101548.22
2022-07-28T20:35:13.571Z,101553.34
2022-07-28T20:37:43.226Z,101556.66
2022-07-28T20:40:12.187Z,101562.78
2022-07-28T20:42:40.509Z,101564.00
2022-07-28T20:45:09.252Z,101559.50
2022-07-28T20:47:37.574Z,101564.00
2022-07-28T20:50:06.734Z,101567.09
2022-07-28T20:52:35.198Z,101570.75
2022-07-28T20:55:05.562Z,101574.66
2022-07-28T20:57:33.739Z,101580.38
2022-07-28T21:00:02.051Z,101586.13
2022-07-28T21:02:30.707Z,101583.84
2022-07-28T21:04:59.065Z,101575.22
2022-07-28T21:08:05.433Z,101580.56
2022-07-28T21:10:17.475Z,101571.91
2022-07-28T21:12:45.772Z,101582.78
2022-07-28T21:15:14.041Z,101582.13
2022-07-28T21:17:42.705Z,101585.81
2022-07-28T21:20:11.960Z,101583.53
2022-07-28T21:22:40.129Z,101582.13
2022-07-28T21:25:09.161Z,101581.66
2022-07-28T21:27:52.673Z,101580.03
2022-07-28T21:30:28.051Z,101580.22
2022-07-28T21:32:56.984Z,101574.91
2022-07-28T21:35:25.522Z,101575.06
2022-07-28T21:37:54.066Z,101578.16
2022-07-28T21:40:22.279Z,101575.50
2022-07-28T21:42:52.261Z,101584.47
2022-07-28T21:45:20.863Z,101580.16
2022-07-28T21:47:49.440Z,101575.25
2022-07-28T21:50:17.647Z,101575.44
2022-07-28T21:52:45.827Z,101571.66
2022-07-28T21:55:14.038Z,101577.81
2022-07-28T21:57:42.378Z,101573.31
2022-07-28T22:00:13.848Z,101576.38
2022-07-28T22:02:42.421Z,101569.59
2022-07-28T22:05:11.452Z,101571.66
2022-07-28T22:07:39.717Z,101565.91
2022-07-28T22:10:08.519Z,101561.16
2022-07-28T22:12:36.729Z,101570.38
2022-07-28T22:15:05.731Z,101559.88
2022-07-28T22:17:35.311Z,101556.00
2022-07-28T22:20:03.807Z,101564.56
2022-07-28T22:22:32.497Z,101562.06
2022-07-28T22:25:00.875Z,101553.47
2022-07-28T22:27:29.230Z,101549.31
2022-07-28T22:29:57.534Z,101540.91
2022-07-28T22:32:28.549Z,101542.31
2022-07-28T22:34:59.301Z,101532.28
2022-07-28T22:37:27.542Z,101536.59
2022-07-28T22:39:55.862Z,101535.97
2022-07-28T22:42:24.024Z,101539.00
2022-07-28T22:44:52.198Z,101532.03
2022-07-28T22:47:20.864Z,101532.25
2022-07-28T22:49:50.606Z,101523.81
2022-07-28T22:52:20.362Z,101518.84
2022-07-28T22:57:34.426Z,101513.34
2022-07-28T23:00:02.739Z,101515.38
2022-07-28T23:02:32.696Z,101514.53
2022-07-28T23:05:01.314Z,101509.41
2022-07-28T23:07:53.017Z,101518.81
2022-07-28T23:10:19.756Z,101510.00
2022-07-28T23:12:48.053Z,101509.75
2022-07-28T23:15:16.483Z,101503.41
2022-07-28T23:17:44.848Z,101502.38
2022-07-28T23:20:13.428Z,101496.22
2022-07-28T23:22:43.217Z,101491.13
2022-07-28T23:25:11.551Z,101492.75
2022-07-28T23:27:39.791Z,101489.47
2022-07-28T23:30:09.221Z,101487.63
2022-07-28T23:32:37.470Z,101485.13
2022-07-28T23:35:06.359Z,101481.84
2022-07-28T23:37:35.227Z,101481.84
2022-07-28T23:40:06.166Z,101481.84
2022-07-28T23:42:34.337Z,101475.25
2022-07-28T23:45:03.599Z,101478.13
2022-07-28T23:47:31.777Z,101473.63
2022-07-28T23:49:59.950Z,101469.94
2022-07-28T23:52:28.501Z,101475.25
2022-07-28T23:54:56.692Z,101477.09
2022-07-28T23:57:30.900Z,101473.22
